sensor_id;sensor_type;location;lat;lon;timestamp;P1;P2;P0
66336;PMS1003;53139;45.576;5.304;2023-02-13T00:02:30;85.33;65.33;40.00
66336;PMS1003;53139;45.576;5.304;2023-02-13T00:05:31;84.33;60.00;37.67
66336;PMS1003;53139;45.576;5.304;2023-02-13T00:08:31;92.25;63.75;39.50
66336;PMS1003;53139;45.576;5.304;2023-02-13T00:11:32;96.00;72.00;46.00
66336;PMS1003;53139;45.576;5.304;2023-02-13T00:14:36;91.75;70.00;44.50
66336;PMS1003;53139;45.576;5.304;2023-02-13T00:17:37;114.75;88.75;53.00
66336;PMS1003;53139;45.576;5.304;2023-02-13T00:20:38;105.67;78.67;48.33
66336;PMS1003;53139;45.576;5.304;2023-02-13T00:23:38;111.67;84.67;54.33
66336;PMS1003;53139;45.576;5.304;2023-02-13T00:26:39;99.00;72.50;47.50
66336;PMS1003;53139;45.576;5.304;2023-02-13T00:29:40;80.00;60.75;39.50
66336;PMS1003;53139;45.576;5.304;2023-02-13T00:32:40;82.25;63.25;40.75
66336;PMS1003;53139;45.576;5.304;2023-02-13T00:35:41;101.67;75.00;46.33
66336;PMS1003;53139;45.576;5.304;2023-02-13T00:38:42;84.50;63.00;39.00
66336;PMS1003;53139;45.576;5.304;2023-02-13T00:41:43;72.50;57.25;36.25
66336;PMS1003;53139;45.576;5.304;2023-02-13T00:44:43;91.00;68.50;43.00
66336;PMS1003;53139;45.576;5.304;2023-02-13T00:47:44;84.67;61.67;39.00
66336;PMS1003;53139;45.576;5.304;2023-02-13T00:50:45;78.67;57.33;39.00
66336;PMS1003;53139;45.576;5.304;2023-02-13T00:53:46;98.00;75.50;47.75
66336;PMS1003;53139;45.576;5.304;2023-02-13T00:56:46;96.33;72.33;46.67
66336;PMS1003;53139;45.576;5.304;2023-02-13T00:59:47;85.00;64.25;42.00
66336;PMS1003;53139;45.576;5.304;2023-02-13T01:02:47;82.67;63.00;39.67
66336;PMS1003;53139;45.576;5.304;2023-02-13T01:05:48;87.33;68.33;42.33
66336;PMS1003;53139;45.576;5.304;2023-02-13T01:08:49;71.75;51.25;35.50
66336;PMS1003;53139;45.576;5.304;2023-02-13T01:11:49;75.25;55.75;34.00
66336;PMS1003;53139;45.576;5.304;2023-02-13T01:14:49;96.00;66.67;42.00
66336;PMS1003;53139;45.576;5.304;2023-02-13T01:17:52;84.00;64.75;41.00
66336;PMS1003;53139;45.576;5.304;2023-02-13T01:20:58;110.75;84.25;51.25
66336;PMS1003;53139;45.576;5.304;2023-02-13T01:24:02;76.75;55.50;35.50
66336;PMS1003;53139;45.576;5.304;2023-02-13T01:27:03;71.00;53.50;33.00
66336;PMS1003;53139;45.576;5.304;2023-02-13T01:30:04;90.50;65.75;40.50
66336;PMS1003;53139;45.576;5.304;2023-02-13T01:33:10;81.00;60.25;39.00
66336;PMS1003;53139;45.576;5.304;2023-02-13T01:36:11;80.00;57.75;36.50
66336;PMS1003;53139;45.576;5.304;2023-02-13T01:39:13;73.50;53.50;33.00
66336;PMS1003;53139;45.576;5.304;2023-02-13T01:42:20;71.33;57.67;36.00
66336;PMS1003;53139;45.576;5.304;2023-02-13T01:45:27;70.00;52.50;33.00
66336;PMS1003;53139;45.576;5.304;2023-02-13T01:48:29;63.50;51.75;33.25
66336;PMS1003;53139;45.576;5.304;2023-02-13T01:51:30;73.33;54.33;33.33
66336;PMS1003;53139;45.576;5.304;2023-02-13T01:54:33;65.50;49.00;31.50
66336;PMS1003;53139;45.576;5.304;2023-02-13T01:57:34;83.00;62.00;38.75
66336;PMS1003;53139;45.576;5.304;2023-02-13T02:00:38;87.00;65.25;39.75
66336;PMS1003;53139;45.576;5.304;2023-02-13T02:03:44;60.25;47.75;31.50
66336;PMS1003;53139;45.576;5.304;2023-02-13T02:07:11;74.25;57.25;36.00
66336;PMS1003;53139;45.576;5.304;2023-02-13T02:10:17;78.25;62.75;41.50
66336;PMS1003;53139;45.576;5.304;2023-02-13T02:13:19;67.50;48.50;31.50
66336;PMS1003;53139;45.576;5.304;2023-02-13T02:16:20;75.25;56.25;37.25
66336;PMS1003;53139;45.576;5.304;2023-02-13T02:19:34;46.00;41.67;30.00
66336;PMS1003;53139;45.576;5.304;2023-02-13T02:26:01;67.75;48.75;31.00
66336;PMS1003;53139;45.576;5.304;2023-02-13T02:47:08;51.50;38.25;22.50
66336;PMS1003;53139;45.576;5.304;2023-02-13T02:50:36;87.25;60.50;39.25
66336;PMS1003;53139;45.576;5.304;2023-02-13T02:54:02;51.75;41.00;28.00
66336;PMS1003;53139;45.576;5.304;2023-02-13T02:57:30;49.00;43.00;25.25
66336;PMS1003;53139;45.576;5.304;2023-02-13T03:00:50;51.50;41.50;28.00
66336;PMS1003;53139;45.576;5.304;2023-02-13T03:04:23;50.25;39.50;24.75
66336;PMS1003;53139;45.576;5.304;2023-02-13T03:07:46;64.75;48.50;30.00
66336;PMS1003;53139;45.576;5.304;2023-02-13T03:10:46;49.33;43.00;24.67
66336;PMS1003;53139;45.576;5.304;2023-02-13T03:14:05;63.50;43.00;30.00
66336;PMS1003;53139;45.576;5.304;2023-02-13T03:17:10;57.00;45.00;27.00
66336;PMS1003;53139;45.576;5.304;2023-02-13T03:24:06;41.75;31.50;19.00
66336;PMS1003;53139;45.576;5.304;2023-02-13T03:34:22;45.50;36.50;21.50
66336;PMS1003;53139;45.576;5.304;2023-02-13T03:37:47;41.25;34.25;21.25
66336;PMS1003;53139;45.576;5.304;2023-02-13T03:41:04;43.25;32.00;19.75
66336;PMS1003;53139;45.576;5.304;2023-02-13T03:47:18;38.00;30.25;18.00
66336;PMS1003;53139;45.576;5.304;2023-02-13T03:50:18;43.00;32.75;18.75
66336;PMS1003;53139;45.576;5.304;2023-02-13T03:53:20;43.00;33.00;20.50
66336;PMS1003;53139;45.576;5.304;2023-02-13T03:56:23;44.00;36.00;21.25
66336;PMS1003;53139;45.576;5.304;2023-02-13T03:59:45;34.25;28.50;21.25
66336;PMS1003;53139;45.576;5.304;2023-02-13T04:02:54;31.50;27.25;18.75
66336;PMS1003;53139;45.576;5.304;2023-02-13T04:06:03;33.50;27.00;18.50
66336;PMS1003;53139;45.576;5.304;2023-02-13T04:09:10;40.00;24.75;16.50
66336;PMS1003;53139;45.576;5.304;2023-02-13T04:12:18;34.00;23.00;18.50
66336;PMS1003;53139;45.576;5.304;2023-02-13T04:18:31;28.50;25.50;18.50
66336;PMS1003;53139;45.576;5.304;2023-02-13T04:21:37;23.50;21.00;15.25
66336;PMS1003;53139;45.576;5.304;2023-02-13T04:24:41;36.75;25.00;17.50
66336;PMS1003;53139;45.576;5.304;2023-02-13T04:27:42;33.50;24.75;16.50
66336;PMS1003;53139;45.576;5.304;2023-02-13T04:30:42;30.00;26.50;18.75
66336;PMS1003;53139;45.576;5.304;2023-02-13T04:33:43;37.25;28.50;19.25
66336;PMS1003;53139;45.576;5.304;2023-02-13T04:36:43;33.67;27.00;18.00
66336;PMS1003;53139;45.576;5.304;2023-02-13T04:39:44;34.67;24.33;16.00
66336;PMS1003;53139;45.576;5.304;2023-02-13T04:42:45;31.67;27.33;19.00
66336;PMS1003;53139;45.576;5.304;2023-02-13T04:45:48;33.00;26.00;15.50
66336;PMS1003;53139;45.576;5.304;2023-02-13T04:48:48;45.00;29.50;21.00
66336;PMS1003;53139;45.576;5.304;2023-02-13T04:51:49;38.00;31.67;19.67
66336;PMS1003;53139;45.576;5.304;2023-02-13T04:54:49;31.00;24.00;15.00
66336;PMS1003;53139;45.576;5.304;2023-02-13T04:57:56;42.00;28.75;17.50
66336;PMS1003;53139;45.576;5.304;2023-02-13T05:00:57;31.50;29.00;20.00
66336;PMS1003;53139;45.576;5.304;2023-02-13T05:03:57;28.33;21.67;16.33
66336;PMS1003;53139;45.576;5.304;2023-02-13T05:06:57;38.75;29.50;18.50
66336;PMS1003;53139;45.576;5.304;2023-02-13T05:09:58;33.33;27.33;18.00
66336;PMS1003;53139;45.576;5.304;2023-02-13T05:12:58;40.67;27.33;18.67
66336;PMS1003;53139;45.576;5.304;2023-02-13T05:15:59;34.50;25.00;17.50
66336;PMS1003;53139;45.576;5.304;2023-02-13T05:18:59;34.00;25.00;18.00
66336;PMS1003;53139;45.576;5.304;2023-02-13T05:21:59;21.00;18.67;14.33
66336;PMS1003;53139;45.576;5.304;2023-02-13T05:25:18;31.50;24.50;16.50
66336;PMS1003;53139;45.576;5.304;2023-02-13T05:28:19;26.67;20.67;13.00
66336;PMS1003;53139;45.576;5.304;2023-02-13T05:31:38;25.25;23.75;17.50
66336;PMS1003;53139;45.576;5.304;2023-02-13T05:34:38;26.75;25.00;15.50
66336;PMS1003;53139;45.576;5.304;2023-02-13T05:37:38;28.67;24.67;15.00
66336;PMS1003;53139;45.576;5.304;2023-02-13T05:40:39;26.00;21.00;13.67
66336;PMS1003;53139;45.576;5.304;2023-02-13T05:43:39;34.75;26.50;15.50
66336;PMS1003;53139;45.576;5.304;2023-02-13T05:46:40;23.33;20.67;15.33
66336;PMS1003;53139;45.576;5.304;2023-02-13T05:49:41;29.00;24.25;18.00
66336;PMS1003;53139;45.576;5.304;2023-02-13T05:52:41;30.00;26.33;16.00
66336;PMS1003;53139;45.576;5.304;2023-02-13T05:55:42;29.50;24.25;18.00
66336;PMS1003;53139;45.576;5.304;2023-02-13T05:58:42;29.33;24.33;15.00
66336;PMS1003;53139;45.576;5.304;2023-02-13T06:01:44;25.00;23.00;17.50
66336;PMS1003;53139;45.576;5.304;2023-02-13T06:04:44;28.50;20.00;16.00
66336;PMS1003;53139;45.576;5.304;2023-02-13T06:07:44;29.00;27.25;19.00
66336;PMS1003;53139;45.576;5.304;2023-02-13T06:10:48;38.33;26.33;19.00
66336;PMS1003;53139;45.576;5.304;2023-02-13T06:13:49;34.75;24.25;16.00
66336;PMS1003;53139;45.576;5.304;2023-02-13T06:16:49;24.67;19.00;15.67
66336;PMS1003;53139;45.576;5.304;2023-02-13T06:19:50;30.33;25.00;16.67
66336;PMS1003;53139;45.576;5.304;2023-02-13T06:22:50;31.00;26.00;16.00
66336;PMS1003;53139;45.576;5.304;2023-02-13T06:25:51;29.50;21.75;14.50
66336;PMS1003;53139;45.576;5.304;2023-02-13T06:28:52;30.67;23.33;15.00
66336;PMS1003;53139;45.576;5.304;2023-02-13T06:31:52;25.25;21.50;15.00
66336;PMS1003;53139;45.576;5.304;2023-02-13T06:34:52;28.00;22.00;18.00
66336;PMS1003;53139;45.576;5.304;2023-02-13T06:37:53;29.67;21.00;15.00
66336;PMS1003;53139;45.576;5.304;2023-02-13T06:40:57;26.25;22.00;17.00
66336;PMS1003;53139;45.576;5.304;2023-02-13T06:43:59;26.75;21.00;12.75
66336;PMS1003;53139;45.576;5.304;2023-02-13T06:46:59;37.00;31.00;21.25
66336;PMS1003;53139;45.576;5.304;2023-02-13T06:49:59;27.33;22.00;16.00
66336;PMS1003;53139;45.576;5.304;2023-02-13T06:53:00;35.25;24.50;16.50
66336;PMS1003;53139;45.576;5.304;2023-02-13T06:56:02;29.00;22.50;18.75
66336;PMS1003;53139;45.576;5.304;2023-02-13T06:59:04;32.00;26.50;20.00
66336;PMS1003;53139;45.576;5.304;2023-02-13T07:02:05;32.75;23.75;15.50
66336;PMS1003;53139;45.576;5.304;2023-02-13T07:05:05;45.67;34.00;24.33
66336;PMS1003;53139;45.576;5.304;2023-02-13T07:08:07;38.25;23.75;15.75
66336;PMS1003;53139;45.576;5.304;2023-02-13T07:11:07;45.75;37.25;26.00
66336;PMS1003;53139;45.576;5.304;2023-02-13T07:14:08;35.33;29.33;21.00
66336;PMS1003;53139;45.576;5.304;2023-02-13T07:17:09;45.25;38.00;25.50
66336;PMS1003;53139;45.576;5.304;2023-02-13T07:20:10;31.50;29.25;21.25
66336;PMS1003;53139;45.576;5.304;2023-02-13T07:23:10;54.50;46.50;33.00
66336;PMS1003;53139;45.576;5.304;2023-02-13T07:26:11;43.00;35.33;25.00
66336;PMS1003;53139;45.576;5.304;2023-02-13T07:29:11;37.50;33.00;21.50
66336;PMS1003;53139;45.576;5.304;2023-02-13T07:32:11;30.00;23.33;15.00
66336;PMS1003;53139;45.576;5.304;2023-02-13T07:35:12;38.25;21.75;15.00
66336;PMS1003;53139;45.576;5.304;2023-02-13T07:38:12;38.00;30.75;20.00
66336;PMS1003;53139;45.576;5.304;2023-02-13T07:41:13;34.25;26.25;20.00
66336;PMS1003;53139;45.576;5.304;2023-02-13T07:44:13;21.00;21.00;14.33
66336;PMS1003;53139;45.576;5.304;2023-02-13T07:47:14;29.67;22.00;14.00
66336;PMS1003;53139;45.576;5.304;2023-02-13T07:50:14;41.67;31.00;18.33
66336;PMS1003;53139;45.576;5.304;2023-02-13T07:53:15;34.00;26.00;20.25
66336;PMS1003;53139;45.576;5.304;2023-02-13T07:56:15;32.50;28.50;18.25
66336;PMS1003;53139;45.576;5.304;2023-02-13T07:59:15;40.00;34.67;21.33
66336;PMS1003;53139;45.576;5.304;2023-02-13T08:02:16;32.33;27.67;18.67
66336;PMS1003;53139;45.576;5.304;2023-02-13T08:05:16;44.67;33.00;21.67
66336;PMS1003;53139;45.576;5.304;2023-02-13T08:08:17;39.25;30.50;23.00
66336;PMS1003;53139;45.576;5.304;2023-02-13T08:11:24;37.67;31.67;20.67
66336;PMS1003;53139;45.576;5.304;2023-02-13T08:14:48;34.00;30.50;21.50
66336;PMS1003;53139;45.576;5.304;2023-02-13T08:17:49;43.00;33.33;18.67
66336;PMS1003;53139;45.576;5.304;2023-02-13T08:20:49;76.00;58.67;37.67
66336;PMS1003;53139;45.576;5.304;2023-02-13T08:23:49;42.00;29.33;15.00
66336;PMS1003;53139;45.576;5.304;2023-02-13T08:26:51;43.00;39.00;25.00
66336;PMS1003;53139;45.576;5.304;2023-02-13T08:29:51;32.50;26.00;17.50
66336;PMS1003;53139;45.576;5.304;2023-02-13T08:32:51;48.50;37.50;24.00
66336;PMS1003;53139;45.576;5.304;2023-02-13T08:35:52;47.00;36.67;23.00
66336;PMS1003;53139;45.576;5.304;2023-02-13T08:38:52;58.33;41.33;26.33
66336;PMS1003;53139;45.576;5.304;2023-02-13T08:41:52;40.00;34.25;23.00
66336;PMS1003;53139;45.576;5.304;2023-02-13T08:44:53;49.75;38.50;22.00
66336;PMS1003;53139;45.576;5.304;2023-02-13T08:47:59;54.25;42.00;26.00
66336;PMS1003;53139;45.576;5.304;2023-02-13T08:51:04;45.75;33.75;19.00
66336;PMS1003;53139;45.576;5.304;2023-02-13T08:54:08;50.25;38.50;24.00
66336;PMS1003;53139;45.576;5.304;2023-02-13T08:57:09;43.75;35.00;21.00
66336;PMS1003;53139;45.576;5.304;2023-02-13T09:00:09;39.75;34.75;23.25
66336;PMS1003;53139;45.576;5.304;2023-02-13T09:03:10;47.25;38.75;24.25
66336;PMS1003;53139;45.576;5.304;2023-02-13T09:06:10;60.50;47.75;30.25
66336;PMS1003;53139;45.576;5.304;2023-02-13T09:09:11;47.00;34.50;21.00
66336;PMS1003;53139;45.576;5.304;2023-02-13T09:12:11;44.00;36.33;23.00
66336;PMS1003;53139;45.576;5.304;2023-02-13T09:15:12;30.75;27.00;17.25
66336;PMS1003;53139;45.576;5.304;2023-02-13T09:18:12;36.25;31.00;19.75
66336;PMS1003;53139;45.576;5.304;2023-02-13T09:21:13;46.50;36.50;23.00
66336;PMS1003;53139;45.576;5.304;2023-02-13T09:24:14;286.50;227.25;117.50
66336;PMS1003;53139;45.576;5.304;2023-02-13T09:27:14;84.00;70.75;44.50
66336;PMS1003;53139;45.576;5.304;2023-02-13T09:30:14;97.33;84.33;48.00
66336;PMS1003;53139;45.576;5.304;2023-02-13T09:33:22;78.50;61.25;37.00
66336;PMS1003;53139;45.576;5.304;2023-02-13T09:36:23;71.75;55.00;35.25
66336;PMS1003;53139;45.576;5.304;2023-02-13T09:39:24;44.00;35.00;23.00
66336;PMS1003;53139;45.576;5.304;2023-02-13T09:42:28;44.00;34.00;21.00
66336;PMS1003;53139;45.576;5.304;2023-02-13T09:45:32;53.25;38.00;24.50
66336;PMS1003;53139;45.576;5.304;2023-02-13T09:48:34;51.50;41.50;26.75
66336;PMS1003;53139;45.576;5.304;2023-02-13T09:51:36;37.00;32.50;21.00
66336;PMS1003;53139;45.576;5.304;2023-02-13T09:54:37;65.75;50.25;32.50
66336;PMS1003;53139;45.576;5.304;2023-02-13T09:57:39;47.50;34.50;23.50
66336;PMS1003;53139;45.576;5.304;2023-02-13T10:00:50;49.25;38.00;24.25
66336;PMS1003;53139;45.576;5.304;2023-02-13T10:07:10;66.75;51.75;33.00
66336;PMS1003;53139;45.576;5.304;2023-02-13T10:10:23;105.75;92.25;55.25
66336;PMS1003;53139;45.576;5.304;2023-02-13T10:17:01;84.75;69.00;43.25
66336;PMS1003;53139;45.576;5.304;2023-02-13T10:20:21;66.25;50.00;31.75
66336;PMS1003;53139;45.576;5.304;2023-02-13T10:23:34;61.25;48.25;32.00
66336;PMS1003;53139;45.576;5.304;2023-02-13T10:26:43;57.00;44.75;28.75
66336;PMS1003;53139;45.576;5.304;2023-02-13T10:29:47;40.25;34.50;24.25
66336;PMS1003;53139;45.576;5.304;2023-02-13T10:33:21;52.50;43.50;29.25
66336;PMS1003;53139;45.576;5.304;2023-02-13T10:36:33;48.50;37.75;25.25
66336;PMS1003;53139;45.576;5.304;2023-02-13T10:39:35;64.50;51.50;36.00
66336;PMS1003;53139;45.576;5.304;2023-02-13T10:42:39;82.33;68.33;44.67
66336;PMS1003;53139;45.576;5.304;2023-02-13T10:45:53;35.00;30.00;19.75
66336;PMS1003;53139;45.576;5.304;2023-02-13T10:52:46;29.75;26.50;19.75
66336;PMS1003;53139;45.576;5.304;2023-02-13T10:59:34;37.50;31.25;21.00
66336;PMS1003;53139;45.576;5.304;2023-02-13T11:02:46;30.25;27.50;19.00
66336;PMS1003;53139;45.576;5.304;2023-02-13T11:05:47;49.50;37.50;26.00
66336;PMS1003;53139;45.576;5.304;2023-02-13T11:08:49;26.25;24.00;17.25
66336;PMS1003;53139;45.576;5.304;2023-02-13T11:11:50;31.50;27.75;19.25
66336;PMS1003;53139;45.576;5.304;2023-02-13T11:18:20;31.75;26.75;18.50
66336;PMS1003;53139;45.576;5.304;2023-02-13T11:21:22;33.00;30.75;20.00
66336;PMS1003;53139;45.576;5.304;2023-02-13T11:24:34;32.00;26.50;19.50
66336;PMS1003;53139;45.576;5.304;2023-02-13T11:27:36;27.25;26.00;19.00
66336;PMS1003;53139;45.576;5.304;2023-02-13T11:30:38;30.00;25.50;15.75
66336;PMS1003;53139;45.576;5.304;2023-02-13T11:33:39;28.50;27.00;16.75
66336;PMS1003;53139;45.576;5.304;2023-02-13T11:36:40;26.00;22.00;12.50
66336;PMS1003;53139;45.576;5.304;2023-02-13T11:39:42;29.25;25.25;17.75
66336;PMS1003;53139;45.576;5.304;2023-02-13T11:42:43;27.25;25.25;15.75
66336;PMS1003;53139;45.576;5.304;2023-02-13T11:49:14;25.75;23.00;14.75
66336;PMS1003;53139;45.576;5.304;2023-02-13T11:52:36;25.75;24.75;16.75
66336;PMS1003;53139;45.576;5.304;2023-02-13T11:55:38;19.25;15.50;11.00
66336;PMS1003;53139;45.576;5.304;2023-02-13T11:58:40;38.75;33.75;23.25
66336;PMS1003;53139;45.576;5.304;2023-02-13T12:01:41;9.50;9.50;7.50
66336;PMS1003;53139;45.576;5.304;2023-02-13T12:04:42;9.00;8.50;6.00
66336;PMS1003;53139;45.576;5.304;2023-02-13T12:07:44;15.00;14.25;10.75
66336;PMS1003;53139;45.576;5.304;2023-02-13T12:10:45;28.75;27.00;17.75
66336;PMS1003;53139;45.576;5.304;2023-02-13T12:13:45;10.75;8.25;6.50
66336;PMS1003;53139;45.576;5.304;2023-02-13T12:16:53;11.50;9.00;7.00
66336;PMS1003;53139;45.576;5.304;2023-02-13T12:20:14;14.50;12.00;9.25
66336;PMS1003;53139;45.576;5.304;2023-02-13T12:23:27;12.75;11.00;7.00
66336;PMS1003;53139;45.576;5.304;2023-02-13T12:26:39;11.25;9.50;6.75
66336;PMS1003;53139;45.576;5.304;2023-02-13T12:29:54;15.00;11.00;9.50
66336;PMS1003;53139;45.576;5.304;2023-02-13T12:50:06;17.75;15.00;11.25
66336;PMS1003;53139;45.576;5.304;2023-02-13T12:57:03;13.75;12.25;10.00
66336;PMS1003;53139;45.576;5.304;2023-02-13T13:00:36;16.50;10.75;7.50
66336;PMS1003;53139;45.576;5.304;2023-02-13T13:17:06;17.00;14.75;10.50
66336;PMS1003;53139;45.576;5.304;2023-02-13T13:20:24;18.50;13.50;9.00
66336;PMS1003;53139;45.576;5.304;2023-02-13T13:23:43;16.75;15.75;11.50
66336;PMS1003;53139;45.576;5.304;2023-02-13T13:27:09;15.25;12.75;9.75
66336;PMS1003;53139;45.576;5.304;2023-02-13T13:33:24;19.00;15.50;10.25
66336;PMS1003;53139;45.576;5.304;2023-02-13T13:39:57;18.25;15.50;10.75
66336;PMS1003;53139;45.576;5.304;2023-02-13T13:43:21;13.25;11.00;6.00
66336;PMS1003;53139;45.576;5.304;2023-02-13T13:49:57;15.25;12.75;8.25
66336;PMS1003;53139;45.576;5.304;2023-02-13T13:56:06;14.00;13.75;10.00
66336;PMS1003;53139;45.576;5.304;2023-02-13T13:59:15;19.75;8.50;6.25
66336;PMS1003;53139;45.576;5.304;2023-02-13T14:11:42;17.75;13.00;10.25
66336;PMS1003;53139;45.576;5.304;2023-02-13T14:14:44;17.00;13.25;8.00
66336;PMS1003;53139;45.576;5.304;2023-02-13T14:23:49;9.25;8.50;6.00
66336;PMS1003;53139;45.576;5.304;2023-02-13T14:27:43;12.00;11.00;8.25
66336;PMS1003;53139;45.576;5.304;2023-02-13T14:30:43;9.75;9.75;7.75
66336;PMS1003;53139;45.576;5.304;2023-02-13T14:33:44;11.50;10.00;6.75
66336;PMS1003;53139;45.576;5.304;2023-02-13T14:36:46;9.00;7.00;5.75
66336;PMS1003;53139;45.576;5.304;2023-02-13T14:40:13;11.75;9.25;6.25
66336;PMS1003;53139;45.576;5.304;2023-02-13T14:43:49;6.50;6.25;5.25
66336;PMS1003;53139;45.576;5.304;2023-02-13T14:46:52;9.75;8.50;5.75
66336;PMS1003;53139;45.576;5.304;2023-02-13T14:49:54;9.75;7.75;6.25
66336;PMS1003;53139;45.576;5.304;2023-02-13T14:52:58;12.00;10.25;8.25
66336;PMS1003;53139;45.576;5.304;2023-02-13T14:56:10;9.50;9.00;7.00
66336;PMS1003;53139;45.576;5.304;2023-02-13T14:59:15;13.50;10.25;7.25
66336;PMS1003;53139;45.576;5.304;2023-02-13T15:02:25;11.50;7.50;6.25
66336;PMS1003;53139;45.576;5.304;2023-02-13T15:05:30;9.00;6.75;5.00
66336;PMS1003;53139;45.576;5.304;2023-02-13T15:08:33;11.25;10.75;7.75
66336;PMS1003;53139;45.576;5.304;2023-02-13T15:11:40;11.00;10.75;7.25
66336;PMS1003;53139;45.576;5.304;2023-02-13T15:14:42;9.25;9.25;5.75
66336;PMS1003;53139;45.576;5.304;2023-02-13T15:17:42;10.75;9.00;5.00
66336;PMS1003;53139;45.576;5.304;2023-02-13T15:20:43;10.50;9.75;7.00
66336;PMS1003;53139;45.576;5.304;2023-02-13T15:23:44;10.00;8.25;6.25
66336;PMS1003;53139;45.576;5.304;2023-02-13T15:26:57;10.25;10.00;6.50
66336;PMS1003;53139;45.576;5.304;2023-02-13T15:33:45;11.50;8.75;7.50
66336;PMS1003;53139;45.576;5.304;2023-02-13T15:36:47;11.00;9.00;7.25
66336;PMS1003;53139;45.576;5.304;2023-02-13T15:39:48;13.75;12.50;7.50
66336;PMS1003;53139;45.576;5.304;2023-02-13T15:42:48;11.00;11.00;8.50
66336;PMS1003;53139;45.576;5.304;2023-02-13T15:45:49;11.50;10.50;7.25
66336;PMS1003;53139;45.576;5.304;2023-02-13T15:48:49;14.25;13.25;10.00
66336;PMS1003;53139;45.576;5.304;2023-02-13T15:52:02;13.25;12.25;7.50
66336;PMS1003;53139;45.576;5.304;2023-02-13T15:55:13;7.50;4.00;2.50
66336;PMS1003;53139;45.576;5.304;2023-02-13T15:58:18;14.00;11.75;8.25
66336;PMS1003;53139;45.576;5.304;2023-02-13T16:01:19;11.75;11.75;8.75
66336;PMS1003;53139;45.576;5.304;2023-02-13T16:04:19;13.25;11.00;8.00
66336;PMS1003;53139;45.576;5.304;2023-02-13T16:07:21;11.50;10.25;8.00
66336;PMS1003;53139;45.576;5.304;2023-02-13T16:10:29;21.50;19.00;13.00
66336;PMS1003;53139;45.576;5.304;2023-02-13T16:13:30;19.75;18.75;13.75
66336;PMS1003;53139;45.576;5.304;2023-02-13T16:16:35;15.50;15.50;12.00
66336;PMS1003;53139;45.576;5.304;2023-02-13T16:22:51;15.25;12.75;9.75
66336;PMS1003;53139;45.576;5.304;2023-02-13T16:25:58;14.00;14.00;10.75
66336;PMS1003;53139;45.576;5.304;2023-02-13T16:29:02;20.75;15.00;11.00
66336;PMS1003;53139;45.576;5.304;2023-02-13T16:32:12;13.25;10.25;8.25
66336;PMS1003;53139;45.576;5.304;2023-02-13T16:35:26;16.00;14.75;10.00
66336;PMS1003;53139;45.576;5.304;2023-02-13T16:38:33;19.25;13.75;11.00
66336;PMS1003;53139;45.576;5.304;2023-02-13T16:41:41;23.25;21.25;15.50
66336;PMS1003;53139;45.576;5.304;2023-02-13T16:44:42;27.25;22.25;17.50
66336;PMS1003;53139;45.576;5.304;2023-02-13T16:47:42;26.50;25.00;16.25
66336;PMS1003;53139;45.576;5.304;2023-02-13T16:50:43;28.50;21.00;16.25
66336;PMS1003;53139;45.576;5.304;2023-02-13T16:53:43;25.00;24.00;16.75
66336;PMS1003;53139;45.576;5.304;2023-02-13T16:56:48;33.00;22.75;14.50
66336;PMS1003;53139;45.576;5.304;2023-02-13T16:59:55;28.75;25.00;19.50
66336;PMS1003;53139;45.576;5.304;2023-02-13T17:02:58;27.75;22.00;14.00
66336;PMS1003;53139;45.576;5.304;2023-02-13T17:06:00;45.00;34.25;22.00
66336;PMS1003;53139;45.576;5.304;2023-02-13T17:09:01;35.50;31.00;22.00
66336;PMS1003;53139;45.576;5.304;2023-02-13T17:12:01;28.75;24.25;17.75
66336;PMS1003;53139;45.576;5.304;2023-02-13T17:15:02;14.75;11.50;5.50
66336;PMS1003;53139;45.576;5.304;2023-02-13T17:18:04;26.75;23.00;16.00
66336;PMS1003;53139;45.576;5.304;2023-02-13T17:21:04;30.25;25.00;18.50
66336;PMS1003;53139;45.576;5.304;2023-02-13T17:24:05;29.00;21.50;14.75
66336;PMS1003;53139;45.576;5.304;2023-02-13T17:27:07;28.75;25.50;17.75
66336;PMS1003;53139;45.576;5.304;2023-02-13T17:30:16;28.50;23.75;17.00
66336;PMS1003;53139;45.576;5.304;2023-02-13T17:33:37;28.50;23.00;15.25
66336;PMS1003;53139;45.576;5.304;2023-02-13T17:36:39;25.25;22.25;17.00
66336;PMS1003;53139;45.576;5.304;2023-02-13T17:39:39;31.25;25.25;17.75
66336;PMS1003;53139;45.576;5.304;2023-02-13T17:42:39;29.00;27.33;18.67
66336;PMS1003;53139;45.576;5.304;2023-02-13T17:45:44;36.00;29.75;20.25
66336;PMS1003;53139;45.576;5.304;2023-02-13T17:48:45;35.50;27.75;18.75
66336;PMS1003;53139;45.576;5.304;2023-02-13T17:51:46;35.75;30.50;21.50
66336;PMS1003;53139;45.576;5.304;2023-02-13T17:54:54;33.75;23.00;11.75
66336;PMS1003;53139;45.576;5.304;2023-02-13T17:57:55;42.00;35.00;20.75
66336;PMS1003;53139;45.576;5.304;2023-02-13T18:00:58;42.50;36.25;25.00
66336;PMS1003;53139;45.576;5.304;2023-02-13T18:03:58;39.00;35.00;23.00
66336;PMS1003;53139;45.576;5.304;2023-02-13T18:06:59;48.25;40.75;26.00
66336;PMS1003;53139;45.576;5.304;2023-02-13T18:09:59;40.00;35.50;23.75
66336;PMS1003;53139;45.576;5.304;2023-02-13T18:13:00;56.25;41.75;26.00
66336;PMS1003;53139;45.576;5.304;2023-02-13T18:16:07;51.75;41.00;27.00
66336;PMS1003;53139;45.576;5.304;2023-02-13T18:19:08;58.00;45.00;30.75
66336;PMS1003;53139;45.576;5.304;2023-02-13T18:22:08;58.00;40.00;27.50
66336;PMS1003;53139;45.576;5.304;2023-02-13T18:25:10;41.25;31.75;23.00
66336;PMS1003;53139;45.576;5.304;2023-02-13T18:28:13;42.75;36.00;25.75
66336;PMS1003;53139;45.576;5.304;2023-02-13T18:31:13;53.25;39.00;26.00
66336;PMS1003;53139;45.576;5.304;2023-02-13T18:34:15;27.75;20.25;7.75
66336;PMS1003;53139;45.576;5.304;2023-02-13T18:37:16;47.00;37.00;24.00
66336;PMS1003;53139;45.576;5.304;2023-02-13T18:40:17;44.50;36.25;24.00
66336;PMS1003;53139;45.576;5.304;2023-02-13T18:43:18;28.00;26.50;22.25
66336;PMS1003;53139;45.576;5.304;2023-02-13T18:46:18;34.00;28.25;18.50
66336;PMS1003;53139;45.576;5.304;2023-02-13T18:49:18;41.25;32.25;22.75
66336;PMS1003;53139;45.576;5.304;2023-02-13T18:52:19;41.50;35.25;23.25
66336;PMS1003;53139;45.576;5.304;2023-02-13T18:55:19;43.50;33.75;21.75
66336;PMS1003;53139;45.576;5.304;2023-02-13T18:58:26;32.75;29.25;21.00
66336;PMS1003;53139;45.576;5.304;2023-02-13T19:01:27;38.25;35.75;22.25
66336;PMS1003;53139;45.576;5.304;2023-02-13T19:04:27;41.00;35.50;24.75
66336;PMS1003;53139;45.576;5.304;2023-02-13T19:07:27;31.75;29.75;18.50
66336;PMS1003;53139;45.576;5.304;2023-02-13T19:10:28;45.25;35.25;23.25
66336;PMS1003;53139;45.576;5.304;2023-02-13T19:13:28;38.25;34.25;22.00
66336;PMS1003;53139;45.576;5.304;2023-02-13T19:16:32;41.00;30.00;20.00
66336;PMS1003;53139;45.576;5.304;2023-02-13T19:19:34;37.75;30.25;21.75
66336;PMS1003;53139;45.576;5.304;2023-02-13T19:22:34;42.50;34.50;25.00
66336;PMS1003;53139;45.576;5.304;2023-02-13T19:25:35;40.25;33.00;20.25
66336;PMS1003;53139;45.576;5.304;2023-02-13T19:28:37;47.75;35.50;25.00